Time;durP1;ratioP1;P1;durP2;ratioP2;P2;SDS_P1;SDS_P2;PMS_P1;PMS_P2;Temp;Humidity;BMP_temperature;BMP_pressure;BME280_temperature;BME280_humidity;BME280_pressure;Samples;Min_cycle;Max_cycle;Signal;HPM_P1;HPM_P2
2023/03/10 00:00:07;;;;;;;;;9.00;3.67;;;;;13.53;68.83;98980.41;2046149;28;2746134;-75
2023/03/10 00:01:23;;;;;;;;;2.00;2.00;;;;;13.52;68.73;98971.63;2029467;28;2734633;-75
2023/03/10 00:02:34;;;;;;;;;8.00;2.00;;;;;13.53;68.59;98970.66;2004008;27;2762775;-75
2023/03/10 00:03:45;;;;;;;;;3.00;3.00;;;;;13.54;68.98;98968.88;2033618;27;2752349;-75
2023/03/10 00:04:59;;;;;;;;;3.00;3.00;;;;;13.53;69.20;98975.13;2052142;28;2748190;-75
2023/03/10 00:06:15;;;;;;;;;5.00;2.50;;;;;13.54;68.86;98975.00;2026696;28;2740415;-76
2023/03/10 00:07:28;;;;;;;;;4.83;2.00;;;;;13.54;68.63;98968.88;2029255;27;2746087;-75
2023/03/10 00:08:39;;;;;;;;;6.00;2.33;;;;;13.54;68.72;98974.16;2019009;27;1831527;-75
2023/03/10 00:09:53;;;;;;;;;2.83;2.17;;;;;13.55;68.65;98970.56;2030150;28;2726404;-76
2023/03/10 00:11:06;;;;;;;;;3.67;2.17;;;;;13.54;68.77;98963.59;2052279;27;2739874;-76
2023/03/10 00:12:21;;;;;;;;;8.83;2.83;;;;;13.52;68.56;98966.34;2036809;27;2749223;-75
2023/03/10 00:13:32;;;;;;;;;5.00;4.33;;;;;13.52;68.38;98960.22;2009363;27;2754865;-75
2023/03/10 00:14:43;;;;;;;;;6.25;2.00;;;;;13.52;68.47;98963.72;2053312;28;2726693;-75
2023/03/10 00:15:57;;;;;;;;;3.17;2.17;;;;;13.53;68.52;98972.47;2051920;27;2741936;-75
2023/03/10 00:17:07;;;;;;;;;7.33;2.67;;;;;13.52;68.63;98965.50;2001659;27;3464137;-75
2023/03/10 00:18:19;;;;;;;;;7.50;3.00;;;;;13.53;68.76;98977.75;2051118;27;2749215;-76
2023/03/10 00:19:30;;;;;;;;;2.33;2.00;;;;;13.52;68.38;98966.34;2004278;28;2741934;-75
2023/03/10 00:20:40;;;;;;;;;4.67;2.67;;;;;13.52;68.39;98974.28;2038217;28;2753435;-75
2023/03/10 00:21:52;;;;;;;;;2.33;2.00;;;;;13.52;68.31;98970.78;2051005;28;2754444;-76
2023/03/10 00:23:05;;;;;;;;;4.83;2.17;;;;;13.50;68.36;98970.91;2029335;28;2737782;-75
2023/03/10 00:24:19;;;;;;;;;6.33;2.00;;;;;13.50;68.09;98971.75;2021978;28;2745072;-75
2023/03/10 00:25:29;;;;;;;;;5.67;4.00;;;;;13.52;68.21;98954.94;1998276;28;2749230;-75
2023/03/10 00:26:40;;;;;;;;;5.00;2.67;;;;;13.50;68.33;98953.28;2043359;28;2754431;-75
2023/03/10 00:27:51;;;;;;;;;3.33;2.00;;;;;13.50;68.12;98953.28;2052305;27;2735003;-75
2023/03/10 00:29:01;;;;;;;;;11.67;2.67;;;;;13.48;67.99;98952.53;2002510;28;3498192;-75
2023/03/10 00:30:13;;;;;;;;;5.67;2.00;;;;;13.49;67.97;98958.66;2052469;28;2729463;-75
2023/03/10 00:31:26;;;;;;;;;5.33;2.67;;;;;13.49;68.00;98946.31;2002863;28;2750300;-75
2023/03/10 00:32:39;;;;;;;;;5.33;2.83;;;;;13.48;68.07;98947.25;2051988;28;2752360;-75
2023/03/10 00:33:51;;;;;;;;;4.00;2.67;;;;;13.48;67.91;98946.44;2003266;27;2752334;-75
2023/03/10 00:35:01;;;;;;;;;5.33;2.67;;;;;13.48;67.88;98931.41;2027002;27;2754440;-75
2023/03/10 00:36:19;;;;;;;;;2.00;1.75;;;;;13.48;67.92;98944.59;2052674;28;2732007;-75
2023/03/10 00:37:36;;;;;;;;;3.83;2.50;;;;;13.49;67.98;98932.25;2053158;27;2744026;-76
2023/03/10 00:38:48;;;;;;;;;13.67;5.00;;;;;13.50;68.34;98939.25;1999427;27;3502315;-75
2023/03/10 00:39:59;;;;;;;;;7.00;3.00;;;;;13.51;67.97;98935.63;2025067;28;3459624;-75
2023/03/10 00:41:13;;;;;;;;;6.33;3.67;;;;;13.50;67.80;98940.09;2051332;28;2747148;-76
2023/03/10 00:42:26;;;;;;;;;3.67;2.83;;;;;13.50;67.58;98928.69;2029672;27;2738883;-76
2023/03/10 00:43:37;;;;;;;;;4.67;2.67;;;;;13.50;67.63;98937.44;2002343;28;2750265;-75
2023/03/10 00:44:48;;;;;;;;;7.33;2.33;;;;;13.49;67.80;98933.09;2033640;28;2731507;-75
2023/03/10 00:45:59;;;;;;;;;9.67;3.00;;;;;13.48;67.64;98926.13;2034660;27;3500811;-75
2023/03/10 00:47:13;;;;;;;;;5.33;2.67;;;;;13.48;67.80;98934.06;2059240;27;2752366;-75
2023/03/10 00:48:23;;;;;;;;;5.67;2.33;;;;;13.47;67.63;98927.09;2003831;27;2754465;-76
2023/03/10 00:49:34;;;;;;;;;5.67;1.67;;;;;13.47;67.59;98928.91;2051861;27;2741948;-75
2023/03/10 00:50:48;;;;;;;;;4.00;1.83;;;;;13.47;67.74;98924.47;2029846;28;2732562;-75
2023/03/10 00:52:01;;;;;;;;;3.83;1.67;;;;;13.47;67.40;98939.47;2029241;28;2741931;-75
2023/03/10 00:53:14;;;;;;;;;5.50;2.83;;;;;13.47;67.66;98936.81;2028082;27;2752364;-75
2023/03/10 00:54:28;;;;;;;;;4.00;1.67;;;;;13.46;67.63;98935.97;2029363;28;2746091;-76
2023/03/10 00:55:41;;;;;;;;;6.67;2.83;;;;;13.45;67.60;98941.38;2028617;28;2745571;-76
2023/03/10 00:56:54;;;;;;;;;3.17;2.00;;;;;13.43;67.57;98936.22;2028966;28;2735717;-76
2023/03/10 00:58:08;;;;;;;;;7.33;3.33;;;;;13.43;67.61;98946.78;2029060;28;2749232;-77
2023/03/10 00:59:21;;;;;;;;;0.83;0.83;;;;;13.41;67.53;98946.03;2029954;27;2737785;-76
2023/03/10 01:00:34;;;;;;;;;2.83;2.17;;;;;13.39;67.75;98940.03;2023605;27;2737213;-76
2023/03/10 01:01:47;;;;;;;;;2.00;2.00;;;;;13.39;67.84;98955.84;2023522;28;2737793;-76
2023/03/10 01:03:00;;;;;;;;;5.00;2.83;;;;;13.37;67.56;98937.50;2028440;28;2738846;-75
2023/03/10 01:04:17;;;;;;;;;2.33;1.50;;;;;13.37;67.97;98941.94;2029445;28;2740196;-76
2023/03/10 01:05:31;;;;;;;;;2.17;0.67;;;;;13.36;67.66;98950.78;2035439;27;2736181;-76
2023/03/10 01:06:46;;;;;;;;;0.83;0.83;;;;;13.35;67.46;98955.25;2059368;27;2731520;-76
2023/03/10 01:07:59;;;;;;;;;1.17;1.17;;;;;13.33;67.43;98946.59;2051488;28;2739165;-76
2023/03/10 01:09:13;;;;;;;;;6.17;2.00;;;;;13.32;67.46;98959.91;2029043;27;2741257;-76
2023/03/10 01:10:26;;;;;;;;;2.00;1.83;;;;;13.31;67.63;98951.13;2030031;27;2737793;-75
2023/03/10 01:11:39;;;;;;;;;0.00;0.00;;;;;13.28;67.54;98952.19;2029974;27;2728414;-76
2023/03/10 01:12:52;;;;;;;;;2.67;1.50;;;;;13.26;67.45;98950.66;2053265;27;2736720;-75
2023/03/10 01:14:10;;;;;;;;;2.67;1.67;;;;;13.22;67.40;98944.75;2029064;27;2740902;-75
2023/03/10 01:15:23;;;;;;;;;3.00;0.83;;;;;13.20;67.56;98948.44;2053041;27;2737788;-75
2023/03/10 01:16:36;;;;;;;;;1.17;1.00;;;;;13.17;67.49;98936.31;2029368;27;2743013;-75
2023/03/10 01:17:50;;;;;;;;;1.00;0.00;;;;;13.15;67.24;98935.59;2029998;27;2737787;-75
2023/03/10 01:19:03;;;;;;;;;3.00;1.00;;;;;13.14;67.48;98910.16;2029005;28;2735677;-75
2023/03/10 01:20:17;;;;;;;;;4.50;1.33;;;;;13.12;67.42;98910.28;2029759;28;2741951;-75
2023/03/10 01:21:34;;;;;;;;;1.00;1.00;;;;;13.11;67.17;98891.94;2028962;28;2731535;-75
2023/03/10 01:22:47;;;;;;;;;1.00;0.00;;;;;13.09;67.47;98883.31;2023552;28;2725294;-75
2023/03/10 01:24:01;;;;;;;;;1.67;0.50;;;;;13.06;66.96;98873.81;2027107;27;2731508;-75
2023/03/10 01:25:15;;;;;;;;;3.33;0.83;;;;;13.05;66.61;98882.69;2021779;28;2744074;-75
2023/03/10 01:26:29;;;;;;;;;0.50;0.50;;;;;13.03;66.83;98893.34;2053460;28;2724700;-75
2023/03/10 01:27:42;;;;;;;;;0.00;0.00;;;;;13.02;66.95;98906.63;2054048;27;2720054;-75
2023/03/10 01:28:57;;;;;;;;;0.67;0.33;;;;;13.00;67.25;98909.38;2053130;27;2732561;-75
2023/03/10 01:30:11;;;;;;;;;1.67;0.17;;;;;12.98;67.22;98900.75;2052464;28;2736300;-75
2023/03/10 01:31:24;;;;;;;;;3.50;1.00;;;;;12.97;67.01;98899.06;2029585;28;2737773;-75
2023/03/10 01:32:37;;;;;;;;;0.00;0.00;;;;;12.97;67.18;98911.41;2029948;28;2726339;-75
2023/03/10 01:33:50;;;;;;;;;3.00;0.17;;;;;12.94;67.12;98913.31;2052016;28;2732572;-75
2023/03/10 01:35:04;;;;;;;;;3.00;0.83;;;;;12.92;67.30;98907.31;2029295;27;2734663;-75
2023/03/10 01:36:21;;;;;;;;;1.67;1.67;;;;;12.92;66.98;98912.56;2052426;27;2744058;-75
2023/03/10 01:37:34;;;;;;;;;0.17;0.00;;;;;12.92;67.67;98927.56;2030158;27;2719017;-75
2023/03/10 01:38:48;;;;;;;;;0.00;0.00;;;;;12.91;67.25;98915.34;2052022;28;2739871;-75
2023/03/10 01:40:04;;;;;;;;;2.50;0.67;;;;;12.88;67.40;98920.81;2051976;28;2727345;-75
2023/03/10 01:41:17;;;;;;;;;2.17;0.00;;;;;12.88;67.35;98928.72;2022844;28;2731574;-75
2023/03/10 01:42:31;;;;;;;;;2.50;1.67;;;;;12.85;66.96;98913.13;2029537;28;2735687;-75
2023/03/10 01:43:52;;;;;;;;;0.83;0.50;;;;;12.82;67.13;98914.19;2030072;27;2726319;-75
2023/03/10 01:45:14;;;;;;;;;2.00;1.00;;;;;12.81;67.00;98917.78;2051178;27;2736742;-75
2023/03/10 01:46:30;;;;;;;;;2.33;0.50;;;;;12.78;67.08;98915.38;2029962;28;2726331;-75
2023/03/10 01:47:44;;;;;;;;;1.50;0.83;;;;;12.76;66.94;98907.59;2021958;28;2727337;-75
2023/03/10 01:49:03;;;;;;;;;3.67;1.00;;;;;12.76;67.08;98896.19;2051026;28;2741963;-75
2023/03/10 01:50:17;;;;;;;;;0.00;0.00;;;;;12.74;67.03;98892.81;2029647;28;2725286;-75
2023/03/10 01:51:34;;;;;;;;;0.17;0.17;;;;;12.74;67.06;98887.56;2053216;28;2733942;-75
2023/03/10 01:52:55;;;;;;;;;1.17;0.17;;;;;12.73;67.30;98889.34;2030223;27;2731531;-75
2023/03/10 01:54:14;;;;;;;;;1.33;1.33;;;;;12.73;67.18;98891.97;2053408;27;2736795;-75
2023/03/10 01:55:34;;;;;;;;;2.17;0.00;;;;;12.72;67.23;98890.28;2029301;28;2732632;-75
2023/03/10 01:56:49;;;;;;;;;0.33;0.00;;;;;12.71;67.49;98880.72;2046266;28;2725270;-76
2023/03/10 01:58:05;;;;;;;;;2.00;1.33;;;;;12.69;67.55;98879.97;2053182;27;2738788;-75
2023/03/10 01:59:20;;;;;;;;;2.33;0.67;;;;;12.68;67.33;98868.59;2029483;28;2729416;-75
2023/03/10 02:00:33;;;;;;;;;1.00;1.00;;;;;12.69;67.14;98874.72;2051630;28;2733618;-75
2023/03/10 02:01:49;;;;;;;;;2.50;0.17;;;;;12.66;67.47;98867.88;2030256;27;2729437;-75
2023/03/10 02:03:08;;;;;;;;;4.00;2.17;;;;;12.68;67.34;98867.75;2052637;27;2744015;-75
2023/03/10 02:04:30;;;;;;;;;1.17;1.00;;;;;12.66;67.58;98856.47;2029447;27;2736704;-75
2023/03/10 02:06:07;;;;;;;;;3.50;0.00;;;;;12.66;67.50;98861.75;2030163;27;2733595;-75
2023/03/10 02:07:25;;;;;;;;;3.50;1.33;;;;;12.66;67.59;98851.19;2052019;28;2739905;-75
2023/03/10 02:08:53;;;;;;;;;2.50;1.00;;;;;12.66;67.35;98861.75;2030877;27;2738838;-75
2023/03/10 02:10:09;;;;;;;;;0.83;0.83;;;;;12.64;67.32;98859.22;2025097;28;2731522;-75
2023/03/10 02:11:22;;;;;;;;;4.00;1.50;;;;;12.64;67.38;98850.47;2026294;28;2746095;-75
2023/03/10 02:12:33;;;;;;;;;3.67;1.33;;;;;12.63;67.22;98843.50;2000888;28;2739940;-75
2023/03/10 02:13:44;;;;;;;;;3.00;2.00;;;;;12.62;67.73;98844.47;2043946;28;2732581;-75
2023/03/10 02:14:57;;;;;;;;;2.00;2.00;;;;;12.60;67.16;98848.06;2028968;28;2732585;-75
2023/03/10 02:16:08;;;;;;;;;4.00;2.33;;;;;12.59;67.10;98843.72;2003374;27;2752364;-75
2023/03/10 02:17:24;;;;;;;;;7.80;2.80;;;;;12.59;67.31;98846.34;2047324;28;2754455;-75
2023/03/10 02:18:40;;;;;;;;;2.00;2.00;;;;;12.59;67.49;98850.81;2028441;28;2738827;-75
2023/03/10 02:20:11;;;;;;;;;2.83;2.00;;;;;12.58;67.16;98847.31;2030146;28;2736710;-75
2023/03/10 02:21:40;;;;;;;;;6.33;2.33;;;;;12.58;67.32;98846.47;2003921;27;2754517;-75
2023/03/10 02:22:50;;;;;;;;;10.33;3.67;;;;;12.58;67.25;98849.97;2026140;27;3490865;-75
2023/03/10 02:24:14;;;;;;;;;9.33;3.33;;;;;12.57;67.29;98845.63;2037295;28;2759642;-75
2023/03/10 02:25:34;;;;;;;;;7.00;2.00;;;;;12.58;67.15;98849.09;2052276;28;2739857;-75
2023/03/10 02:27:18;;;;;;;;;3.67;2.00;;;;;12.58;66.69;98846.47;2029555;28;2746145;-75
2023/03/10 02:28:31;;;;;;;;;1.50;1.00;;;;;12.57;66.98;98848.25;2026930;28;2735678;-75
2023/03/10 02:29:52;;;;;;;;;5.00;2.33;;;;;12.58;66.94;98842.06;2030321;28;2731524;-75
2023/03/10 02:31:02;;;;;;;;;4.00;3.33;;;;;12.58;67.07;98836.78;2004168;27;2750264;-75
2023/03/10 02:32:17;;;;;;;;;2.60;2.60;;;;;12.60;67.21;98855.09;2061388;27;2734675;-75
2023/03/10 02:33:32;;;;;;;;;2.33;2.33;;;;;12.59;66.84;98837.63;2036999;27;2733591;-75
2023/03/10 02:34:45;;;;;;;;;5.67;2.67;;;;;12.59;66.86;98842.91;2030051;27;2747148;-75
2023/03/10 02:36:23;;;;;;;;;8.33;2.00;;;;;12.58;66.91;98842.06;2015374;27;1848681;-76
2023/03/10 02:37:36;;;;;;;;;2.50;1.83;;;;;12.58;66.88;98836.78;2027549;27;2729461;-76
2023/03/10 02:38:49;;;;;;;;;6.33;3.00;;;;;12.59;66.82;98842.91;2045980;28;2739845;-75
2023/03/10 02:40:24;;;;;;;;;2.67;1.83;;;;;12.58;66.53;98836.78;2029966;27;2746094;-76
2023/03/10 02:41:37;;;;;;;;;4.00;2.00;;;;;12.59;66.53;98842.91;2002831;27;2754436;-75
2023/03/10 02:42:47;;;;;;;;;7.00;3.33;;;;;12.59;66.62;98835.00;2027275;28;2754492;-75
2023/03/10 02:44:03;;;;;;;;;5.75;1.75;;;;;12.59;66.33;98846.34;2052462;27;2737192;-75
2023/03/10 02:45:14;;;;;;;;;3.00;1.67;;;;;12.58;66.33;98836.78;2020097;27;2737805;-75
2023/03/10 02:46:27;;;;;;;;;4.75;2.75;;;;;12.58;66.02;98828.88;2052461;28;2749262;-75
2023/03/10 02:47:40;;;;;;;;;3.50;1.33;;;;;12.58;65.88;98828.03;2051639;27;2747140;-75
2023/03/10 02:48:53;;;;;;;;;3.33;0.33;;;;;12.58;66.22;98825.41;2031218;27;2727370;-75
2023/03/10 02:50:09;;;;;;;;;5.00;1.67;;;;;12.59;66.14;98827.91;2030630;27;2733671;-75
2023/03/10 02:51:26;;;;;;;;;3.33;2.00;;;;;12.59;66.06;98817.38;2021449;28;2746110;-75
2023/03/10 02:52:45;;;;;;;;;2.00;1.00;;;;;12.60;66.04;98829.59;2022615;28;2733619;-75
2023/03/10 02:54:00;;;;;;;;;2.50;0.67;;;;;12.59;65.90;98817.38;2049253;28;2737842;-76
2023/03/10 02:55:14;;;;;;;;;3.33;1.83;;;;;12.61;65.98;98825.19;2030343;28;2730467;-75
2023/03/10 02:56:31;;;;;;;;;2.83;2.17;;;;;12.60;65.92;98821.69;2028132;28;2737799;-75
2023/03/10 02:57:44;;;;;;;;;3.00;1.33;;;;;12.60;65.51;98826.13;2030636;28;2736727;-75
2023/03/10 02:58:58;;;;;;;;;0.83;0.83;;;;;12.61;65.04;98825.19;2030001;27;2737773;-75
2023/03/10 03:00:12;;;;;;;;;4.00;0.00;;;;;12.60;65.42;98813.78;2030686;27;2738249;-75
2023/03/10 03:01:25;;;;;;;;;3.00;0.67;;;;;12.62;65.14;98823.41;2030690;27;2735686;-75
2023/03/10 03:02:38;;;;;;;;;2.50;1.50;;;;;12.62;65.59;98815.50;2030638;27;2739879;-75
2023/03/10 03:03:52;;;;;;;;;1.33;0.00;;;;;12.64;65.37;98813.56;2029456;27;2732568;-75
2023/03/10 03:05:06;;;;;;;;;1.17;0.33;;;;;12.63;65.39;98817.16;2054871;27;2731535;-75
2023/03/10 03:06:20;;;;;;;;;0.00;0.00;;;;;12.63;65.20;98814.50;2054650;27;2724221;-75
2023/03/10 03:07:33;;;;;;;;;0.33;0.33;;;;;12.64;65.06;98818.84;2053295;27;2727449;-75
2023/03/10 03:08:46;;;;;;;;;1.33;0.00;;;;;12.65;65.23;98809.97;2051672;27;2731552;-75
2023/03/10 03:10:00;;;;;;;;;2.83;0.00;;;;;12.64;65.30;98809.16;2028111;28;2732597;-75
2023/03/10 03:11:14;;;;;;;;;0.17;0.00;;;;;12.64;64.49;98801.25;2045992;28;2735691;-75
2023/03/10 03:12:27;;;;;;;;;2.83;0.17;;;;;12.64;64.79;98818.84;2052319;28;2729446;-75
2023/03/10 03:13:40;;;;;;;;;0.83;0.83;;;;;12.63;65.03;98814.50;2030530;28;2733606;-75
2023/03/10 03:14:53;;;;;;;;;1.00;1.00;;;;;12.62;64.74;98807.59;2029937;27;2733646;-75
2023/03/10 03:16:08;;;;;;;;;1.00;0.00;;;;;12.62;65.03;98807.59;2022139;28;2733622;-75
2023/03/10 03:17:21;;;;;;;;;3.00;0.33;;;;;12.60;65.19;98805.88;2048621;28;2735683;-75
2023/03/10 03:18:35;;;;;;;;;1.67;0.00;;;;;12.59;64.83;98806.81;2019903;28;2733662;-75
2023/03/10 03:19:48;;;;;;;;;1.33;1.00;;;;;12.59;65.17;98800.72;2053146;28;2744038;-75
2023/03/10 03:21:06;;;;;;;;;0.67;0.00;;;;;12.58;65.25;98801.69;2031707;27;2725286;-75
2023/03/10 03:22:20;;;;;;;;;1.00;1.00;;;;;12.58;65.08;98804.31;2052694;28;2744047;-75
2023/03/10 03:23:34;;;;;;;;;1.00;1.00;;;;;12.57;65.04;98799.97;2028977;28;2723186;-75
2023/03/10 03:24:48;;;;;;;;;1.67;1.17;;;;;12.56;65.16;98801.81;2050088;28;2742990;-75
2023/03/10 03:26:01;;;;;;;;;2.33;0.50;;;;;12.55;65.13;98804.53;2026568;28;2740930;-75
2023/03/10 03:27:14;;;;;;;;;1.00;1.00;;;;;12.53;65.24;98802.00;2053848;27;2729424;-75
2023/03/10 03:28:27;;;;;;;;;1.67;0.67;;;;;12.52;65.50;98797.69;2053390;27;2727361;-75
2023/03/10 03:29:40;;;;;;;;;2.50;2.00;;;;;12.52;65.71;98795.03;2052788;27;2754431;-75
2023/03/10 03:30:53;;;;;;;;;3.17;2.00;;;;;12.54;65.61;98813.41;2023637;28;2736796;-75
2023/03/10 03:32:07;;;;;;;;;2.67;1.00;;;;;12.55;65.42;98808.00;2031249;28;2728422;-75
2023/03/10 03:33:20;;;;;;;;;1.33;0.67;;;;;12.54;65.78;98808.13;2053446;27;2731551;-75
2023/03/10 03:34:33;;;;;;;;;3.00;1.83;;;;;12.54;66.08;98811.63;2053569;27;2746105;-75
2023/03/10 03:35:46;;;;;;;;;1.50;1.17;;;;;12.54;65.43;98808.97;2029405;28;2735763;-75
2023/03/10 03:36:59;;;;;;;;;2.50;1.67;;;;;12.54;65.48;98808.97;2052675;28;2741281;-75
2023/03/10 03:38:13;;;;;;;;;2.50;2.00;;;;;12.54;65.63;98800.22;2028507;27;2738807;-75
2023/03/10 03:39:26;;;;;;;;;3.33;0.83;;;;;12.55;65.77;98805.38;2022701;28;2733596;-75
2023/03/10 03:40:40;;;;;;;;;3.17;1.00;;;;;12.55;65.69;98802.75;2029135;28;2740279;-75
2023/03/10 03:41:56;;;;;;;;;2.67;1.33;;;;;12.55;65.92;98804.53;2029542;28;2740914;-75
2023/03/10 03:43:11;;;;;;;;;1.50;1.00;;;;;12.54;65.88;98808.13;2045225;28;2737785;-75
2023/03/10 03:44:21;;;;;;;;;6.67;3.00;;;;;12.54;65.89;98806.34;2025102;28;2758967;-75
2023/03/10 03:45:33;;;;;;;;;2.00;1.00;;;;;12.54;65.88;98797.59;2047076;28;2744130;-75
2023/03/10 03:46:46;;;;;;;;;4.33;1.83;;;;;12.55;65.71;98805.38;2053699;28;2734656;-75
2023/03/10 03:47:59;;;;;;;;;4.50;1.50;;;;;12.54;66.23;98803.72;2052219;28;2734649;-75
2023/03/10 03:49:12;;;;;;;;;2.00;2.00;;;;;12.55;65.80;98807.16;2028367;28;2736736;-75
2023/03/10 03:50:26;;;;;;;;;3.17;1.17;;;;;12.55;66.16;98805.38;2027687;28;2731511;-75
2023/03/10 03:51:36;;;;;;;;;2.67;2.00;;;;;12.57;66.56;98807.88;2022545;28;2739924;-75
2023/03/10 03:52:47;;;;;;;;;1.33;1.33;;;;;12.56;66.60;98807.06;2052360;27;2740922;-75
2023/03/10 03:54:00;;;;;;;;;3.33;2.50;;;;;12.57;66.46;98816.63;2052980;27;2735709;-75
2023/03/10 03:55:13;;;;;;;;;5.33;2.00;;;;;12.58;66.55;98810.44;2003091;27;2752348;-75
2023/03/10 03:56:27;;;;;;;;;4.83;2.83;;;;;12.59;66.71;98819.19;2053515;27;2743360;-75
2023/03/10 03:57:41;;;;;;;;;4.00;1.00;;;;;12.58;66.27;98810.44;2029537;27;2740948;-75
2023/03/10 03:58:54;;;;;;;;;2.50;1.67;;;;;12.57;66.78;98813.16;2030207;28;2746109;-75
2023/03/10 04:00:11;;;;;;;;;5.17;3.17;;;;;12.57;66.64;98805.25;2029165;27;2746602;-76
2023/03/10 04:01:24;;;;;;;;;5.17;3.83;;;;;12.55;66.68;98810.66;2029790;27;2747612;-75
2023/03/10 04:02:34;;;;;;;;;10.67;3.00;;;;;12.57;67.03;98811.38;2002165;27;3496095;-75
2023/03/10 04:03:45;;;;;;;;;8.67;3.00;;;;;12.58;67.00;98805.16;2052367;27;2745458;-75
2023/03/10 04:04:59;;;;;;;;;3.00;1.00;;;;;12.57;66.93;98811.38;2030065;27;2735752;-75
2023/03/10 04:06:12;;;;;;;;;1.83;1.83;;;;;12.59;66.81;98816.53;2037696;27;2733610;-75
2023/03/10 04:07:25;;;;;;;;;3.83;2.17;;;;;12.59;66.84;98813.91;2035213;27;2741943;-75
2023/03/10 04:08:38;;;;;;;;;0.00;0.00;;;;;12.58;66.81;98810.44;2052073;27;2730511;-75
2023/03/10 04:09:51;;;;;;;;;2.00;1.50;;;;;12.58;66.92;98810.44;2028421;28;2736712;-75
2023/03/10 04:11:05;;;;;;;;;3.00;2.50;;;;;12.58;67.23;98802.53;2028853;27;2750697;-75
2023/03/10 04:12:15;;;;;;;;;5.00;2.33;;;;;12.59;67.25;98798.91;2003099;27;2754447;-76
2023/03/10 04:13:26;;;;;;;;;4.67;2.00;;;;;12.59;67.34;98804.19;2048266;27;2743382;-75
2023/03/10 04:14:37;;;;;;;;;3.00;2.00;;;;;12.58;67.40;98804.31;2017873;28;3454419;-75
2023/03/10 04:15:54;;;;;;;;;2.00;1.75;;;;;12.58;67.58;98799.03;2052635;27;2737823;-75
2023/03/10 04:17:07;;;;;;;;;3.00;2.33;;;;;12.57;67.50;98799.97;2052662;27;2749326;-75
2023/03/10 04:18:17;;;;;;;;;8.00;2.33;;;;;12.56;67.63;98804.44;1996885;28;2753523;-75
2023/03/10 04:19:29;;;;;;;;;7.33;3.00;;;;;12.57;67.11;98803.47;2035328;28;2756677;-75
2023/03/10 04:20:40;;;;;;;;;5.00;2.00;;;;;12.56;67.22;98801.81;2049179;28;2736808;-75
2023/03/10 04:21:53;;;;;;;;;4.00;2.50;;;;;12.55;67.35;98802.75;2025080;27;2754451;-75
2023/03/10 04:23:04;;;;;;;;;8.00;3.00;;;;;12.55;67.15;98805.38;1996816;28;2754535;-75
2023/03/10 04:24:15;;;;;;;;;3.67;2.33;;;;;12.55;67.32;98799.25;2037490;28;2750333;-75
2023/03/10 04:25:27;;;;;;;;;4.00;2.00;;;;;12.56;67.35;98809.72;2046549;28;2748016;-75
2023/03/10 04:26:40;;;;;;;;;5.83;2.33;;;;;12.55;67.10;98808.00;2048424;28;2730524;-76
2023/03/10 04:27:53;;;;;;;;;4.67;1.67;;;;;12.54;67.25;98801.06;2027936;28;2736759;-75
2023/03/10 04:29:04;;;;;;;;;6.00;3.00;;;;;12.54;67.15;98797.59;2001824;28;2752344;-75
2023/03/10 04:30:16;;;;;;;;;5.25;2.50;;;;;12.54;67.17;98803.72;2051939;27;2744042;-75
2023/03/10 04:31:29;;;;;;;;;2.50;1.67;;;;;12.55;66.73;98808.00;2030750;27;2746110;-75
2023/03/10 04:32:42;;;;;;;;;3.00;1.17;;;;;12.54;66.72;98800.22;2052161;27;2737781;-75
2023/03/10 04:33:56;;;;;;;;;0.33;0.33;;;;;12.50;67.03;98812.75;2053720;27;2717341;-75
2023/03/10 04:35:11;;;;;;;;;4.83;2.00;;;;;12.50;67.10;98804.84;2030873;27;2732588;-75
2023/03/10 04:36:25;;;;;;;;;5.17;2.00;;;;;12.49;66.96;98811.09;2052207;27;2736719;-75
2023/03/10 04:37:35;;;;;;;;;5.00;1.33;;;;;12.48;66.81;98809.41;2027138;28;2748213;-75
2023/03/10 04:38:46;;;;;;;;;2.00;2.00;;;;;12.47;66.59;98797.19;2052271;27;2734675;-75
2023/03/10 04:40:07;;;;;;;;;3.00;1.00;;;;;12.45;66.43;98797.28;2030429;27;2738839;-75
2023/03/10 04:41:20;;;;;;;;;2.50;0.00;;;;;12.44;66.56;98797.41;2020671;28;2744024;-75
2023/03/10 04:42:33;;;;;;;;;3.83;1.67;;;;;12.43;66.84;98795.72;2020294;28;2748181;-75
2023/03/10 04:43:47;;;;;;;;;1.83;0.67;;;;;12.44;66.86;98807.94;2021926;28;2727384;-75
2023/03/10 04:45:00;;;;;;;;;1.17;1.00;;;;;12.44;66.76;98807.94;2045198;28;2735689;-75
2023/03/10 04:46:13;;;;;;;;;3.33;1.00;;;;;12.41;66.66;98801.09;2050931;28;2746090;-75
2023/03/10 04:47:26;;;;;;;;;2.00;0.00;;;;;12.42;66.56;98804.59;2028275;28;2735693;-75
2023/03/10 04:48:37;;;;;;;;;3.00;1.00;;;;;12.40;66.66;98806.47;2020720;28;3453877;-75
2023/03/10 04:49:50;;;;;;;;;2.20;1.00;;;;;12.40;66.77;98804.69;2052180;28;2729496;-75
2023/03/10 04:51:06;;;;;;;;;5.00;1.00;;;;;12.40;66.16;98801.19;2050975;27;2740889;-75
2023/03/10 04:52:19;;;;;;;;;1.00;1.00;;;;;12.39;66.56;98795.13;2030065;27;2729480;-75
2023/03/10 04:53:33;;;;;;;;;1.00;0.17;;;;;12.40;66.32;98799.41;2052188;27;2734663;-75
2023/03/10 04:54:44;;;;;;;;;3.67;1.00;;;;;12.40;66.04;98804.69;2003800;27;2746107;-75
2023/03/10 04:55:55;;;;;;;;;3.00;0.67;;;;;12.38;66.19;98802.16;2059566;27;2745080;-75
2023/03/10 04:57:08;;;;;;;;;1.00;1.00;;;;;12.38;66.33;98793.41;2058134;27;2730486;-75
2023/03/10 04:58:21;;;;;;;;;0.67;0.17;;;;;12.38;66.34;98799.53;2053411;27;2732592;-75
2023/03/10 04:59:34;;;;;;;;;2.50;0.00;;;;;12.38;65.82;98803.97;2053677;28;2734655;-75
2023/03/10 05:00:48;;;;;;;;;0.00;0.00;;;;;12.37;66.26;98807.56;2029610;27;2728382;-75
2023/03/10 05:02:01;;;;;;;;;1.67;1.00;;;;;12.36;66.31;98811.13;2053038;28;2735035;-75
2023/03/10 05:03:15;;;;;;;;;2.00;0.33;;;;;12.36;66.27;98811.13;2028988;28;2733689;-75
2023/03/10 05:04:28;;;;;;;;;1.00;1.00;;;;;12.36;66.22;98813.78;2045063;28;2742997;-75
2023/03/10 05:05:42;;;;;;;;;2.00;0.17;;;;;12.36;66.35;98826.94;2026825;28;2734672;-75
2023/03/10 05:06:55;;;;;;;;;1.17;1.00;;;;;12.36;66.30;98816.41;2053215;28;2739855;-75
2023/03/10 05:08:08;;;;;;;;;2.50;1.33;;;;;12.35;66.38;98818.19;2051825;28;2745084;-75
2023/03/10 05:09:21;;;;;;;;;3.50;0.50;;;;;12.34;65.97;98829.69;2052938;28;2743020;-75
2023/03/10 05:10:34;;;;;;;;;0.67;0.00;;;;;12.34;66.11;98826.22;2052683;28;2733591;-75
2023/03/10 05:11:47;;;;;;;;;0.67;0.00;;;;;12.33;65.96;98828.00;2051384;28;2729440;-75
2023/03/10 05:13:01;;;;;;;;;1.00;0.00;;;;;12.30;65.22;98825.56;2045781;28;2727401;-75
2023/03/10 05:14:14;;;;;;;;;0.50;0.50;;;;;12.28;65.45;98830.13;2053367;27;2730486;-75
2023/03/10 05:15:27;;;;;;;;;2.67;0.00;;;;;12.26;65.74;98824.97;2029480;27;2728386;-75
2023/03/10 05:16:42;;;;;;;;;1.33;0.00;;;;;12.25;65.61;98827.69;2029766;28;2727365;-75
2023/03/10 05:17:55;;;;;;;;;0.50;0.00;;;;;12.25;65.75;98819.78;2054325;27;2726343;-75
2023/03/10 05:19:08;;;;;;;;;0.67;0.50;;;;;12.25;65.74;98827.69;2051777;28;2734648;-75
2023/03/10 05:20:21;;;;;;;;;0.00;0.00;;;;;12.24;66.20;98815.50;2050844;28;2731914;-75
2023/03/10 05:21:34;;;;;;;;;2.17;0.00;;;;;12.25;65.94;98825.06;2047137;28;2739860;-75
2023/03/10 05:22:48;;;;;;;;;0.17;0.17;;;;;12.24;65.68;98820.75;2030061;27;2736768;-75
2023/03/10 05:24:01;;;;;;;;;0.50;0.00;;;;;12.24;65.95;98824.25;2054080;27;2729463;-75
2023/03/10 05:25:14;;;;;;;;;0.17;0.00;;;;;12.25;65.89;98825.91;2029215;27;2731567;-75
2023/03/10 05:26:27;;;;;;;;;0.00;0.00;;;;;12.26;65.77;98826.75;2053633;28;2725269;-75
2023/03/10 05:27:41;;;;;;;;;0.00;0.00;;;;;12.26;65.79;98832.03;2054023;27;2723218;-75
2023/03/10 05:28:54;;;;;;;;;1.00;0.00;;;;;12.26;65.57;98824.97;2054243;28;2725274;-75
2023/03/10 05:30:10;;;;;;;;;0.00;0.00;;;;;12.26;65.97;98837.28;2053007;27;2729788;-75
2023/03/10 05:31:25;;;;;;;;;2.83;1.00;;;;;12.26;65.66;98832.88;2050709;27;2734656;-75
2023/03/10 05:32:39;;;;;;;;;0.00;0.00;;;;;12.24;65.73;98839.19;2046031;28;2731882;-75
2023/03/10 05:33:53;;;;;;;;;0.00;0.00;;;;;12.22;65.30;98838.47;2051367;28;2733634;-75
2023/03/10 05:35:06;;;;;;;;;0.00;0.00;;;;;12.21;65.48;98836.78;2051147;28;2733946;-75
2023/03/10 05:36:21;;;;;;;;;2.00;0.00;;;;;12.20;65.56;98835.09;2052373;28;2727481;-75
2023/03/10 05:37:38;;;;;;;;;0.00;0.00;;;;;12.18;65.50;98856.25;2051938;28;2730477;-75
2023/03/10 05:38:51;;;;;;;;;0.33;0.00;;;;;12.17;65.62;98859.00;2023021;28;2731555;-75
2023/03/10 05:40:12;;;;;;;;;0.00;0.00;;;;;12.14;65.61;98839.00;2051849;28;2726787;-75